createdAt,value
2018-07-16T00:02:07.551Z,94901.72
2018-07-16T00:04:34.195Z,94900.19
2018-07-16T00:07:00.845Z,94900.45
2018-07-16T00:09:27.472Z,94901.50
2018-07-16T00:11:54.108Z,94904.86
2018-07-16T00:14:20.757Z,94911.93
2018-07-16T00:16:47.391Z,94905.81
2018-07-16T00:19:14.051Z,94908.85
2018-07-16T00:21:40.740Z,94911.38
2018-07-16T00:24:07.378Z,94914.15
2018-07-16T00:26:34.007Z,94921.63
2018-07-16T00:29:00.643Z,94918.70
2018-07-16T00:31:27.283Z,94914.59
2018-07-16T00:33:53.930Z,94911.63
2018-07-16T00:36:20.580Z,94916.44
2018-07-16T00:38:47.227Z,94923.36
2018-07-16T00:41:13.870Z,94923.36
2018-07-16T00:43:40.510Z,94918.75
2018-07-16T00:46:07.171Z,94918.95
2018-07-16T00:48:33.848Z,94919.27
2018-07-16T00:51:00.493Z,94913.93
2018-07-16T00:53:27.125Z,94918.30
2018-07-16T00:55:53.799Z,94925.76
2018-07-16T00:58:20.428Z,94923.73
2018-07-16T01:00:47.064Z,94928.22
2018-07-16T01:03:13.702Z,94922.80
2018-07-16T01:05:40.398Z,94922.84
2018-07-16T01:08:07.027Z,94927.03
2018-07-16T01:10:33.661Z,94931.95
2018-07-16T01:13:00.316Z,94937.91
2018-07-16T01:15:26.961Z,94937.91
2018-07-16T01:17:53.615Z,94932.97
2018-07-16T01:20:20.254Z,94929.81
2018-07-16T01:22:46.897Z,94935.05
2018-07-16T01:25:13.522Z,94922.06
2018-07-16T01:27:40.182Z,94927.95
2018-07-16T01:30:06.821Z,94934.80
2018-07-16T01:32:33.475Z,94939.02
2018-07-16T01:35:00.133Z,94939.09
2018-07-16T01:37:26.743Z,94932.64
2018-07-16T01:39:53.402Z,94937.48
2018-07-16T01:42:20.095Z,94933.72
2018-07-16T01:44:46.813Z,94940.16
2018-07-16T01:47:13.476Z,94943.05
2018-07-16T01:49:40.122Z,94941.28
2018-07-16T01:52:06.764Z,94939.22
2018-07-16T01:54:33.463Z,94935.72
2018-07-16T01:57:00.103Z,94940.73
2018-07-16T01:59:26.793Z,94936.66
2018-07-16T02:01:53.424Z,94935.39
2018-07-16T02:04:20.055Z,94942.39
2018-07-16T02:06:46.700Z,94949.73
2018-07-16T02:09:13.332Z,94940.84
2018-07-16T02:11:39.981Z,94942.77
2018-07-16T02:14:06.608Z,94951.88
2018-07-16T02:16:33.300Z,94941.33
2018-07-16T02:18:59.935Z,94947.69
2018-07-16T02:21:26.619Z,94945.45
2018-07-16T02:23:53.259Z,94949.73
2018-07-16T02:26:19.947Z,94942.01
2018-07-16T02:28:46.618Z,94948.07
2018-07-16T02:31:13.268Z,94946.62
2018-07-16T02:33:39.906Z,94950.00
2018-07-16T02:36:06.616Z,94946.30
2018-07-16T02:38:33.286Z,94949.84
2018-07-16T02:40:59.925Z,94958.25
2018-07-16T02:43:26.623Z,94956.92
2018-07-16T02:45:53.274Z,94952.56
2018-07-16T02:48:19.998Z,94950.04
2018-07-16T02:50:46.646Z,94943.41
2018-07-16T02:53:13.274Z,94945.86
2018-07-16T02:55:39.911Z,94945.28
2018-07-16T02:58:06.552Z,94946.53
2018-07-16T03:00:33.203Z,94945.92
2018-07-16T03:02:59.836Z,94952.30
2018-07-16T03:05:26.548Z,94948.65
2018-07-16T03:07:53.151Z,94952.92
2018-07-16T03:10:19.790Z,94952.41
2018-07-16T03:12:46.445Z,94946.84
2018-07-16T03:15:13.091Z,94950.04
2018-07-16T03:17:39.737Z,94950.31
2018-07-16T03:20:06.375Z,94940.64
2018-07-16T03:22:33.019Z,94944.29
2018-07-16T03:24:59.670Z,94940.99
2018-07-16T03:27:26.412Z,94947.27
2018-07-16T03:29:53.052Z,94950.84
2018-07-16T03:32:19.754Z,94949.04
2018-07-16T03:34:46.462Z,94942.66
2018-07-16T03:37:13.092Z,94952.09
2018-07-16T03:39:39.735Z,94955.94
2018-07-16T03:42:06.375Z,94956.46
2018-07-16T03:44:33.018Z,94960.05
2018-07-16T03:46:59.656Z,94956.25
2018-07-16T03:49:26.286Z,94955.33
2018-07-16T03:51:52.928Z,94959.31
2018-07-16T03:54:19.634Z,94957.23
2018-07-16T03:56:46.258Z,94953.55
2018-07-16T03:59:12.898Z,94956.02
2018-07-16T04:01:39.577Z,94953.45
2018-07-16T04:04:06.202Z,94949.50
2018-07-16T04:06:32.877Z,94947.97
2018-07-16T04:08:59.489Z,94949.81
2018-07-16T04:11:26.129Z,94952.23
2018-07-16T04:13:52.810Z,94947.94
2018-07-16T04:16:19.446Z,94948.02
2018-07-16T04:18:46.077Z,94949.86
2018-07-16T04:21:12.731Z,94947.64
2018-07-16T04:23:39.371Z,94939.06
2018-07-16T04:26:06.016Z,94939.70
2018-07-16T04:28:32.661Z,94928.24
2018-07-16T04:30:59.385Z,94932.00
2018-07-16T04:33:26.004Z,94930.02
2018-07-16T04:35:52.635Z,94930.39
2018-07-16T04:38:19.328Z,94928.33
2018-07-16T04:40:46.017Z,94924.56
2018-07-16T04:43:12.652Z,94932.93
2018-07-16T04:45:39.287Z,94936.72
2018-07-16T04:48:05.928Z,94934.94
2018-07-16T04:50:32.612Z,94923.11
2018-07-16T04:52:59.248Z,94931.89
2018-07-16T04:55:25.943Z,94932.22
2018-07-16T04:57:52.579Z,94930.88
2018-07-16T05:00:19.219Z,94931.81
2018-07-16T05:02:45.857Z,94929.10
2018-07-16T05:05:12.558Z,94925.03
2018-07-16T05:07:39.198Z,94924.59
2018-07-16T05:10:05.876Z,94932.58
2018-07-16T05:12:33.494Z,94916.69
2018-07-16T05:15:00.216Z,94920.11
2018-07-16T05:17:26.917Z,94908.54
2018-07-16T05:19:53.573Z,94922.71
2018-07-16T05:22:20.231Z,94917.66
2018-07-16T05:24:46.951Z,94910.31
2018-07-16T05:27:13.632Z,94911.02
2018-07-16T05:29:40.331Z,94915.88
2018-07-16T05:32:07.020Z,94924.23
2018-07-16T05:34:33.640Z,94920.83
2018-07-16T05:37:00.287Z,94919.53
2018-07-16T05:39:26.948Z,94920.47
2018-07-16T05:41:53.634Z,94908.58
2018-07-16T05:44:20.332Z,94924.35
2018-07-16T05:46:46.960Z,94929.07
2018-07-16T05:49:13.606Z,94926.38
2018-07-16T05:51:40.284Z,94927.34
2018-07-16T05:54:06.923Z,94924.28
2018-07-16T05:56:33.555Z,94924.87
2018-07-16T05:59:00.201Z,94932.23
2018-07-16T06:01:26.837Z,94932.70
2018-07-16T06:03:53.474Z,94929.61
2018-07-16T06:06:20.148Z,94930.36
2018-07-16T06:08:46.791Z,94928.66
2018-07-16T06:11:13.441Z,94919.68
2018-07-16T06:13:40.111Z,94930.02
2018-07-16T06:16:06.746Z,94933.05
2018-07-16T06:18:33.474Z,94930.13
2018-07-16T06:21:00.095Z,94932.20
2018-07-16T06:23:26.782Z,94925.45
2018-07-16T06:25:53.520Z,94921.53
2018-07-16T06:28:20.212Z,94929.25
2018-07-16T06:30:46.816Z,94928.66
2018-07-16T06:33:13.459Z,94925.97
2018-07-16T06:35:40.160Z,94919.22
2018-07-16T06:38:06.828Z,94921.06
2018-07-16T06:40:33.598Z,94919.94
2018-07-16T06:43:00.077Z,94905.27
2018-07-16T06:45:26.808Z,94914.28
2018-07-16T06:47:53.586Z,94912.80
2018-07-16T06:50:20.224Z,94909.80
2018-07-16T06:52:46.837Z,94906.89
2018-07-16T06:55:13.610Z,94904.67
2018-07-16T06:57:40.181Z,94909.47
2018-07-16T07:00:06.877Z,94906.48
2018-07-16T07:02:33.521Z,94906.75
2018-07-16T07:05:00.228Z,94902.86
2018-07-16T07:07:26.883Z,94896.75
2018-07-16T07:09:53.562Z,94904.52
2018-07-16T07:12:20.197Z,94902.48
2018-07-16T07:14:46.913Z,94889.55
2018-07-16T07:17:13.526Z,94889.48
2018-07-16T07:19:40.215Z,94884.73
2018-07-16T07:22:06.901Z,94890.83
2018-07-16T07:24:33.549Z,94892.92
2018-07-16T07:27:00.245Z,94886.34
2018-07-16T07:29:26.881Z,94884.68
2018-07-16T07:31:53.541Z,94894.37
2018-07-16T07:34:20.241Z,94893.02
2018-07-16T07:36:46.890Z,94887.73
2018-07-16T07:39:13.574Z,94892.67
2018-07-16T07:41:40.231Z,94896.11
2018-07-16T07:44:07.199Z,94899.09
2018-07-16T07:46:33.833Z,94893.40
2018-07-16T07:49:00.492Z,94896.14
2018-07-16T07:51:27.193Z,94894.82
2018-07-16T07:53:53.863Z,94899.80
2018-07-16T07:56:20.550Z,94897.41
2018-07-16T07:58:47.203Z,94898.45
2018-07-16T08:01:13.857Z,94907.34
2018-07-16T08:03:40.555Z,94902.45
2018-07-16T08:06:07.192Z,94889.13
2018-07-16T08:08:33.864Z,94903.90
2018-07-16T08:11:00.504Z,94904.88
2018-07-16T08:13:27.155Z,94902.00
2018-07-16T08:15:53.828Z,94899.00
2018-07-16T08:18:20.470Z,94899.98
2018-07-16T08:20:47.115Z,94905.83
2018-07-16T08:23:13.754Z,94893.30
2018-07-16T08:25:40.464Z,94897.80
2018-07-16T08:28:07.172Z,94899.29
2018-07-16T08:30:33.788Z,94896.55
2018-07-16T08:33:00.496Z,94902.11
2018-07-16T08:35:27.183Z,94893.38
2018-07-16T08:37:53.826Z,94898.74
2018-07-16T08:40:20.631Z,94894.37
2018-07-16T08:42:47.268Z,94890.80
2018-07-16T08:45:13.938Z,94889.89
2018-07-16T08:47:40.601Z,94887.89
2018-07-16T08:50:07.253Z,94892.22
2018-07-16T08:52:33.987Z,94886.11
2018-07-16T08:55:00.570Z,94890.55
2018-07-16T08:57:27.218Z,94892.33
2018-07-16T08:59:53.895Z,94894.29
2018-07-16T09:02:20.594Z,94900.63
2018-07-16T09:04:47.251Z,94901.77
2018-07-16T09:07:13.923Z,94898.71
2018-07-16T09:09:40.526Z,94904.25
2018-07-16T09:12:08.243Z,94896.50
2018-07-16T09:14:34.951Z,94908.03
2018-07-16T09:17:01.607Z,94903.19
2018-07-16T09:19:28.246Z,94898.08
2018-07-16T09:21:54.849Z,94908.98
2018-07-16T09:24:21.490Z,94900.58
2018-07-16T09:26:48.152Z,94903.19
2018-07-16T09:29:14.791Z,94896.40
2018-07-16T09:31:41.467Z,94905.82
2018-07-16T09:34:08.158Z,94904.99
2018-07-16T09:36:34.852Z,94905.98
2018-07-16T09:39:01.538Z,94894.18
2018-07-16T09:41:28.119Z,94911.63
2018-07-16T09:43:54.805Z,94903.75
2018-07-16T09:46:21.441Z,94906.39
2018-07-16T09:48:48.117Z,94912.80
2018-07-16T09:51:14.773Z,94910.42
2018-07-16T09:53:41.501Z,94899.80
2018-07-16T09:56:08.149Z,94894.67
2018-07-16T09:58:34.870Z,94888.00
2018-07-16T10:01:01.516Z,94892.10
2018-07-16T10:03:28.155Z,94898.62
2018-07-16T10:05:54.796Z,94891.55
2018-07-16T10:08:21.472Z,94877.83
2018-07-16T10:10:48.077Z,94877.20
2018-07-16T10:13:14.805Z,94875.87
2018-07-16T10:15:42.356Z,94873.34
2018-07-16T10:18:09.062Z,94863.16
2018-07-16T10:20:35.803Z,94864.66
2018-07-16T10:23:04.477Z,94856.80
2018-07-16T10:25:31.124Z,94856.53
2018-07-16T10:27:57.822Z,94862.41
2018-07-16T10:30:24.465Z,94863.75
2018-07-16T10:32:51.187Z,94851.25
2018-07-16T10:35:17.891Z,94863.59
2018-07-16T10:37:44.574Z,94873.45
2018-07-16T10:40:11.267Z,94861.09
2018-07-16T10:42:38.967Z,94859.95
2018-07-16T10:45:05.706Z,94854.37
2018-07-16T10:47:32.422Z,94860.85
2018-07-16T10:49:59.163Z,94867.95
2018-07-16T10:52:25.908Z,94864.70
2018-07-16T10:54:52.560Z,94857.52
2018-07-16T10:57:19.283Z,94863.83
2018-07-16T10:59:45.958Z,94858.70
2018-07-16T11:02:12.603Z,94853.55
2018-07-16T11:04:39.277Z,94861.69
2018-07-16T11:07:07.435Z,94858.48
2018-07-16T11:09:32.645Z,94853.55
2018-07-16T11:11:59.283Z,94859.80
2018-07-16T11:14:25.971Z,94858.78
2018-07-16T11:16:52.654Z,94860.11
2018-07-16T11:19:19.449Z,94849.70
2018-07-16T11:21:46.141Z,94849.41
2018-07-16T11:24:12.826Z,94838.24
2018-07-16T11:26:39.494Z,94836.66
2018-07-16T11:29:06.161Z,94841.48
2018-07-16T11:31:32.797Z,94843.36
2018-07-16T11:33:59.476Z,94832.09
2018-07-16T11:36:26.160Z,94822.45
2018-07-16T11:38:52.812Z,94835.41
2018-07-16T11:41:19.673Z,94841.23
2018-07-16T11:43:46.430Z,94842.86
2018-07-16T11:46:13.128Z,94832.71
2018-07-16T11:48:39.760Z,94824.63
2018-07-16T11:51:06.571Z,94816.09
2018-07-16T11:53:33.237Z,94829.48
2018-07-16T11:55:59.879Z,94827.88
2018-07-16T11:58:27.744Z,94826.23
2018-07-16T12:00:53.156Z,94821.33
2018-07-16T12:03:19.883Z,94821.97
2018-07-16T12:05:47.698Z,94834.08
2018-07-16T12:08:14.398Z,94828.54
2018-07-16T12:10:41.036Z,94833.74
2018-07-16T12:13:09.755Z,94829.77
2018-07-16T12:15:36.402Z,94828.06
2018-07-16T12:18:03.043Z,94816.95
2018-07-16T12:20:29.745Z,94818.11
2018-07-16T12:22:56.367Z,94820.07
2018-07-16T12:25:23.009Z,94829.11
2018-07-16T12:27:49.647Z,94823.60
2018-07-16T12:30:16.316Z,94818.87
2018-07-16T12:32:43.049Z,94829.91
2018-07-16T12:35:09.691Z,94825.48
2018-07-16T12:37:36.390Z,94819.61
2018-07-16T12:40:03.066Z,94806.09
2018-07-16T12:42:29.705Z,94819.34
2018-07-16T12:44:56.418Z,94812.82
2018-07-16T12:47:23.073Z,94802.73
2018-07-16T12:49:49.744Z,94809.50
2018-07-16T12:52:16.480Z,94812.13
2018-07-16T12:54:43.118Z,94811.19
2018-07-16T12:57:09.853Z,94797.58
2018-07-16T12:59:36.462Z,94797.53
2018-07-16T13:02:03.120Z,94798.07
2018-07-16T13:04:29.794Z,94802.28
2018-07-16T13:06:56.424Z,94792.11
2018-07-16T13:09:23.099Z,94791.54
2018-07-16T13:11:49.794Z,94788.08
2018-07-16T13:14:16.447Z,94793.23
2018-07-16T13:16:43.093Z,94776.45
2018-07-16T13:19:09.781Z,94784.59
2018-07-16T13:21:36.428Z,94784.81
2018-07-16T13:24:03.071Z,94784.62
2018-07-16T13:26:29.801Z,94788.91
2018-07-16T13:28:56.453Z,94777.81
2018-07-16T13:31:23.092Z,94798.42
2018-07-16T13:33:49.736Z,94787.69
2018-07-16T13:36:16.448Z,94790.56
2018-07-16T13:38:43.095Z,94782.00
2018-07-16T13:41:09.736Z,94778.98
2018-07-16T13:43:36.420Z,94781.45
2018-07-16T13:46:03.076Z,94781.27
2018-07-16T13:48:29.706Z,94771.86
2018-07-16T13:50:56.394Z,94768.30
2018-07-16T13:53:23.069Z,94775.32
2018-07-16T13:55:49.813Z,94779.85
2018-07-16T13:58:16.421Z,94774.78
2018-07-16T14:00:43.101Z,94775.27
2018-07-16T14:03:10.680Z,94780.31
2018-07-16T14:05:37.287Z,94765.17
2018-07-16T14:08:03.936Z,94766.95
2018-07-16T14:10:30.587Z,94764.89
2018-07-16T14:12:57.226Z,94764.52
2018-07-16T14:15:23.910Z,94758.99
2018-07-16T14:17:50.544Z,94763.84
2018-07-16T14:20:17.183Z,94759.47
2018-07-16T14:22:43.818Z,94764.23
2018-07-16T14:25:10.513Z,94752.22
2018-07-16T14:27:37.148Z,94755.67
2018-07-16T14:30:03.825Z,94760.97
2018-07-16T14:32:30.519Z,94756.98
2018-07-16T14:34:57.284Z,94759.32
2018-07-16T14:37:23.963Z,94758.73
2018-07-16T14:39:50.649Z,94753.21
2018-07-16T14:42:17.255Z,94739.87
2018-07-16T14:44:43.911Z,94744.91
2018-07-16T14:47:10.545Z,94750.95
2018-07-16T14:49:37.188Z,94746.37
2018-07-16T14:52:03.857Z,94741.22
2018-07-16T14:54:30.498Z,94735.05
2018-07-16T14:56:57.174Z,94737.31
2018-07-16T14:59:23.810Z,94725.52
2018-07-16T15:01:50.450Z,94733.53
2018-07-16T15:04:17.086Z,94737.16
2018-07-16T15:06:43.754Z,94728.60
2018-07-16T15:09:10.420Z,94727.94
2018-07-16T15:11:37.055Z,94725.05
2018-07-16T15:14:03.776Z,94729.35
2018-07-16T15:16:30.339Z,94721.23
2018-07-16T15:18:56.991Z,94711.92
2018-07-16T15:21:23.863Z,94710.44
2018-07-16T15:23:50.606Z,94703.55
2018-07-16T15:26:17.259Z,94699.36
2018-07-16T15:28:43.908Z,94699.44
2018-07-16T15:31:10.560Z,94696.72
2018-07-16T15:33:37.192Z,94698.05
2018-07-16T15:36:03.868Z,94693.59
2018-07-16T15:38:30.500Z,94699.26
2018-07-16T15:40:57.217Z,94701.30
2018-07-16T15:43:23.861Z,94703.61
2018-07-16T15:45:50.497Z,94705.36
2018-07-16T15:48:17.214Z,94710.81
2018-07-16T15:50:43.809Z,94717.30
2018-07-16T15:53:10.458Z,94712.23
2018-07-16T15:55:37.100Z,94713.01
2018-07-16T15:58:03.759Z,94703.16
2018-07-16T16:00:30.388Z,94710.59
2018-07-16T16:02:57.082Z,94717.86
2018-07-16T16:05:23.677Z,94713.94
2018-07-16T16:07:50.306Z,94705.64
2018-07-16T16:10:16.955Z,94702.39
2018-07-16T16:12:43.594Z,94714.66
2018-07-16T16:15:10.247Z,94724.29
2018-07-16T16:17:36.880Z,94727.93
2018-07-16T16:20:03.525Z,94722.75
2018-07-16T16:22:30.159Z,94717.28
2018-07-16T16:24:56.797Z,94717.47
2018-07-16T16:27:23.434Z,94723.53
2018-07-16T16:29:50.109Z,94724.34
2018-07-16T16:32:16.749Z,94730.08
2018-07-16T16:34:43.384Z,94730.48
2018-07-16T16:37:10.038Z,94723.94
2018-07-16T16:39:36.673Z,94728.01
2018-07-16T16:42:03.387Z,94738.79
2018-07-16T16:44:30.000Z,94751.16
2018-07-16T16:46:56.680Z,94757.43
2018-07-16T16:49:23.319Z,94750.37
2018-07-16T16:51:49.955Z,94748.73
2018-07-16T16:54:16.649Z,94746.35
2018-07-16T16:56:43.255Z,94745.04
2018-07-16T16:59:09.901Z,94746.86
2018-07-16T17:01:36.535Z,94749.28
2018-07-16T17:04:03.267Z,94742.30
2018-07-16T17:06:29.910Z,94742.33
2018-07-16T17:08:56.547Z,94757.31
2018-07-16T17:11:23.186Z,94756.63
2018-07-16T17:13:49.834Z,94761.02
2018-07-16T17:16:16.477Z,94753.11
2018-07-16T17:18:43.145Z,94754.42
2018-07-16T17:21:09.797Z,94755.47
2018-07-16T17:23:36.502Z,94754.97
2018-07-16T17:26:03.204Z,94761.19
2018-07-16T17:28:29.844Z,94750.64
2018-07-16T17:30:56.479Z,94750.19
2018-07-16T17:33:23.132Z,94751.83
2018-07-16T17:35:49.778Z,94752.39
2018-07-16T17:38:16.426Z,94753.30
2018-07-16T17:40:43.075Z,94754.88
2018-07-16T17:43:09.715Z,94751.40
2018-07-16T17:45:36.407Z,94744.21
2018-07-16T17:48:03.038Z,94747.21
2018-07-16T17:50:29.696Z,94745.89
2018-07-16T17:52:56.332Z,94753.72
2018-07-16T17:55:22.965Z,94747.63
2018-07-16T17:57:49.739Z,94748.95
2018-07-16T18:00:16.406Z,94759.01
2018-07-16T18:02:43.018Z,94757.73
2018-07-16T18:05:09.655Z,94756.53
2018-07-16T18:07:36.309Z,94752.02
2018-07-16T18:10:02.931Z,94747.04
2018-07-16T18:12:29.622Z,94753.98
2018-07-16T18:14:56.253Z,94746.57
2018-07-16T18:17:22.885Z,94738.14
2018-07-16T18:19:49.531Z,94735.27
2018-07-16T18:22:16.257Z,94722.62
2018-07-16T18:24:42.902Z,94726.96
2018-07-16T18:27:09.537Z,94726.09
2018-07-16T18:29:36.176Z,94724.81
2018-07-16T18:32:02.851Z,94733.66
2018-07-16T18:34:29.471Z,94733.09
2018-07-16T18:36:56.121Z,94746.53
2018-07-16T18:39:22.764Z,94742.55
2018-07-16T18:41:49.408Z,94735.73
2018-07-16T18:44:19.185Z,94740.85
2018-07-16T18:46:45.853Z,94745.28
2018-07-16T18:49:12.501Z,94748.08
2018-07-16T18:51:39.144Z,94747.32
2018-07-16T18:54:05.788Z,94749.42
2018-07-16T18:56:32.426Z,94748.56
2018-07-16T18:58:59.062Z,94756.95
2018-07-16T19:01:25.713Z,94749.09
2018-07-16T19:03:52.346Z,94743.09
2018-07-16T19:06:18.985Z,94747.84
2018-07-16T19:08:45.705Z,94748.70
2018-07-16T19:11:12.351Z,94738.66
2018-07-16T19:13:38.995Z,94733.64
2018-07-16T19:16:05.634Z,94729.09
2018-07-16T19:18:33.527Z,94737.42
2018-07-16T19:20:58.910Z,94738.41
2018-07-16T19:23:25.564Z,94741.67
2018-07-16T19:25:52.216Z,94739.23
2018-07-16T19:28:18.866Z,94739.30
2018-07-16T19:30:45.651Z,94743.25
2018-07-16T19:33:12.341Z,94741.45
2018-07-16T19:35:39.007Z,94737.23
2018-07-16T19:38:05.679Z,94736.13
2018-07-16T19:40:32.352Z,94739.30
2018-07-16T19:42:59.002Z,94740.86
2018-07-16T19:45:25.645Z,94733.83
2018-07-16T19:47:52.314Z,94736.01
2018-07-16T19:50:18.948Z,94725.88
2018-07-16T19:52:45.635Z,94724.26
2018-07-16T19:55:12.322Z,94724.52
2018-07-16T19:57:38.963Z,94721.70
2018-07-16T20:00:05.586Z,94722.16
2018-07-16T20:02:32.233Z,94723.92
2018-07-16T20:04:58.868Z,94719.70
2018-07-16T20:07:25.514Z,94723.16
2018-07-16T20:09:52.223Z,94736.25
2018-07-16T20:12:18.820Z,94734.37
2018-07-16T20:14:45.501Z,94731.19
2018-07-16T20:17:12.173Z,94726.37
2018-07-16T20:19:38.806Z,94728.30
2018-07-16T20:22:05.449Z,94726.41
2018-07-16T20:24:32.186Z,94722.58
2018-07-16T20:26:58.902Z,94715.97
2018-07-16T20:29:25.466Z,94709.16
2018-07-16T20:31:52.112Z,94704.63
2018-07-16T20:34:18.749Z,94709.95
2018-07-16T20:36:45.424Z,94707.20
2018-07-16T20:39:12.152Z,94694.02
2018-07-16T20:41:38.787Z,94694.77
2018-07-16T20:44:08.633Z,94702.89
2018-07-16T20:46:35.317Z,94700.49
2018-07-16T20:49:02.016Z,94698.09
2018-07-16T20:51:28.657Z,94694.21
2018-07-16T20:53:55.292Z,94691.80
2018-07-16T20:56:21.954Z,94691.91
2018-07-16T20:58:48.650Z,94686.63
2018-07-16T21:01:15.320Z,94685.70
2018-07-16T21:03:41.967Z,94676.20
2018-07-16T21:06:08.648Z,94678.16
2018-07-16T21:08:35.277Z,94670.10
2018-07-16T21:11:01.932Z,94674.72
2018-07-16T21:13:28.578Z,94680.30
2018-07-16T21:15:55.260Z,94686.13
2018-07-16T21:18:21.931Z,94682.13
2018-07-16T21:20:48.565Z,94671.59
2018-07-16T21:23:15.209Z,94682.45
2018-07-16T21:25:41.858Z,94685.05
2018-07-16T21:28:08.503Z,94683.03
2018-07-16T21:30:35.153Z,94682.98
2018-07-16T21:33:01.866Z,94685.90
2018-07-16T21:35:28.630Z,94682.67
2018-07-16T21:37:55.198Z,94671.58
2018-07-16T21:40:21.944Z,94671.94
2018-07-16T21:42:48.576Z,94677.48
2018-07-16T21:45:15.265Z,94671.06
2018-07-16T21:47:41.898Z,94667.56
2018-07-16T21:50:08.531Z,94672.45
2018-07-16T21:52:35.185Z,94667.09
2018-07-16T21:55:01.827Z,94661.88
2018-07-16T21:57:28.543Z,94665.35
2018-07-16T21:59:55.144Z,94667.31
2018-07-16T22:02:21.776Z,94675.39
2018-07-16T22:04:48.422Z,94678.41
2018-07-16T22:07:15.104Z,94674.58
2018-07-16T22:09:41.717Z,94670.02
2018-07-16T22:12:08.404Z,94671.09
2018-07-16T22:14:35.035Z,94670.66
2018-07-16T22:17:01.709Z,94667.13
2018-07-16T22:19:28.343Z,94664.83
2018-07-16T22:21:55.019Z,94664.68
2018-07-16T22:24:21.647Z,94666.72
2018-07-16T22:26:48.277Z,94675.71
2018-07-16T22:29:15.041Z,94677.88
2018-07-16T22:31:41.693Z,94674.14
2018-07-16T22:34:08.400Z,94682.53
2018-07-16T22:36:34.994Z,94673.36
2018-07-16T22:39:01.630Z,94674.45
2018-07-16T22:41:28.309Z,94674.91
2018-07-16T22:43:55.029Z,94669.79
2018-07-16T22:46:21.702Z,94670.58
2018-07-16T22:48:48.384Z,94669.83
2018-07-16T22:51:15.096Z,94673.22
2018-07-16T22:53:41.732Z,94669.98
2018-07-16T22:56:08.375Z,94667.61
2018-07-16T22:58:35.063Z,94661.66
2018-07-16T23:01:01.709Z,94657.97
2018-07-16T23:03:28.433Z,94652.03
2018-07-16T23:05:55.195Z,94652.14
2018-07-16T23:08:21.832Z,94652.81
2018-07-16T23:10:48.480Z,94644.66
2018-07-16T23:13:15.124Z,94646.53
2018-07-16T23:15:41.763Z,94644.95
2018-07-16T23:18:08.404Z,94649.16
2018-07-16T23:20:35.042Z,94642.73
2018-07-16T23:23:01.684Z,94638.31
2018-07-16T23:25:28.323Z,94643.47
2018-07-16T23:27:54.965Z,94639.79
2018-07-16T23:30:21.628Z,94628.01
2018-07-16T23:32:48.226Z,94621.91
2018-07-16T23:35:14.864Z,94622.36
2018-07-16T23:37:41.495Z,94622.17
2018-07-16T23:40:08.157Z,94631.09
2018-07-16T23:42:34.786Z,94633.98
2018-07-16T23:45:01.419Z,94633.38
2018-07-16T23:47:28.065Z,94645.16
2018-07-16T23:49:54.707Z,94649.61
2018-07-16T23:52:21.345Z,94644.41
2018-07-16T23:54:47.982Z,94642.25
2018-07-16T23:57:14.623Z,94636.45
2018-07-16T23:59:41.272Z,94634.77
